sensor_id;sensor_type;location;lat;lon;timestamp;pressure;altitude;pressure_sealevel;temperature;humidity
57668;BME280;43499;52.366;12.912;2023-01-16T00:00:33;99659.97;;;3.00;86.61
57668;BME280;43499;52.366;12.912;2023-01-16T00:01:34;99685.75;;;3.07;86.95
57668;BME280;43499;52.366;12.912;2023-01-16T00:02:35;99715.34;;;3.37;87.54
57668;BME280;43499;52.366;12.912;2023-01-16T00:03:36;99692.09;;;3.19;87.37
57668;BME280;43499;52.366;12.912;2023-01-16T00:04:37;99710.06;;;3.27;86.83
57668;BME280;43499;52.366;12.912;2023-01-16T00:05:38;99651.81;;;3.05;86.44
57668;BME280;43499;52.366;12.912;2023-01-16T00:06:39;99700.38;;;3.34;86.63
57668;BME280;43499;52.366;12.912;2023-01-16T00:07:41;99687.66;;;3.18;86.76
57668;BME280;43499;52.366;12.912;2023-01-16T00:08:43;99701.19;;;3.24;86.74
57668;BME280;43499;52.366;12.912;2023-01-16T00:09:44;99665.31;;;3.01;86.50
57668;BME280;43499;52.366;12.912;2023-01-16T00:10:45;99720.41;;;3.35;86.70
57668;BME280;43499;52.366;12.912;2023-01-16T00:11:46;99708.31;;;3.36;86.34
57668;BME280;43499;52.366;12.912;2023-01-16T00:12:47;99664.97;;;3.07;86.65
57668;BME280;43499;52.366;12.912;2023-01-16T00:13:49;99684.22;;;3.09;87.03
57668;BME280;43499;52.366;12.912;2023-01-16T00:14:50;99689.63;;;3.21;87.56
57668;BME280;43499;52.366;12.912;2023-01-16T00:15:51;99689.84;;;3.14;86.76
57668;BME280;43499;52.366;12.912;2023-01-16T00:16:52;99656.81;;;2.93;86.92
57668;BME280;43499;52.366;12.912;2023-01-16T00:17:53;99675.50;;;3.08;86.97
57668;BME280;43499;52.366;12.912;2023-01-16T00:18:55;99662.72;;;3.01;86.99
57668;BME280;43499;52.366;12.912;2023-01-16T00:19:56;99708.03;;;3.33;87.04
57668;BME280;43499;52.366;12.912;2023-01-16T00:20:57;99716.44;;;3.30;86.63
57668;BME280;43499;52.366;12.912;2023-01-16T00:21:58;99623.75;;;2.82;87.26
57668;BME280;43499;52.366;12.912;2023-01-16T00:22:59;99662.44;;;2.98;86.98
57668;BME280;43499;52.366;12.912;2023-01-16T00:24:00;99666.72;;;2.98;87.69
57668;BME280;43499;52.366;12.912;2023-01-16T00:25:05;99698.94;;;3.19;87.07
57668;BME280;43499;52.366;12.912;2023-01-16T00:26:07;99662.56;;;3.00;87.55
57668;BME280;43499;52.366;12.912;2023-01-16T00:27:10;99700.34;;;3.15;87.34
57668;BME280;43499;52.366;12.912;2023-01-16T00:28:12;99667.41;;;3.05;87.13
57668;BME280;43499;52.366;12.912;2023-01-16T00:29:13;99630.75;;;2.83;87.24
57668;BME280;43499;52.366;12.912;2023-01-16T00:30:14;99665.97;;;3.18;87.36
57668;BME280;43499;52.366;12.912;2023-01-16T00:31:16;99646.41;;;2.93;86.94
57668;BME280;43499;52.366;12.912;2023-01-16T00:32:17;99709.16;;;3.26;86.64
57668;BME280;43499;52.366;12.912;2023-01-16T00:33:18;99660.41;;;3.04;87.17
57668;BME280;43499;52.366;12.912;2023-01-16T00:34:19;99693.31;;;3.14;87.49
57668;BME280;43499;52.366;12.912;2023-01-16T00:35:20;99700.78;;;3.20;87.05
57668;BME280;43499;52.366;12.912;2023-01-16T00:36:21;99681.31;;;3.06;87.24
57668;BME280;43499;52.366;12.912;2023-01-16T00:37:22;99652.25;;;2.91;87.95
57668;BME280;43499;52.366;12.912;2023-01-16T00:38:23;99654.53;;;2.88;87.54
57668;BME280;43499;52.366;12.912;2023-01-16T00:39:24;99651.06;;;2.87;87.52
57668;BME280;43499;52.366;12.912;2023-01-16T00:40:25;99706.41;;;3.24;87.45
57668;BME280;43499;52.366;12.912;2023-01-16T00:41:26;99710.69;;;3.24;87.20
57668;BME280;43499;52.366;12.912;2023-01-16T00:42:27;99678.44;;;3.03;87.29
57668;BME280;43499;52.366;12.912;2023-01-16T00:43:28;99697.28;;;3.19;87.80
57668;BME280;43499;52.366;12.912;2023-01-16T00:44:29;99700.78;;;3.20;87.58
57668;BME280;43499;52.366;12.912;2023-01-16T00:45:30;99647.22;;;2.84;87.23
57668;BME280;43499;52.366;12.912;2023-01-16T00:46:31;99710.88;;;3.17;87.83
57668;BME280;43499;52.366;12.912;2023-01-16T00:47:32;99655.63;;;2.90;88.14
57668;BME280;43499;52.366;12.912;2023-01-16T00:48:33;99693.25;;;3.04;88.36
57668;BME280;43499;52.366;12.912;2023-01-16T00:49:34;99639.84;;;2.69;87.49
57668;BME280;43499;52.366;12.912;2023-01-16T00:50:35;99697.38;;;3.02;88.06
57668;BME280;43499;52.366;12.912;2023-01-16T00:51:36;99685.34;;;2.93;87.87
57668;BME280;43499;52.366;12.912;2023-01-16T00:52:37;99645.75;;;2.77;87.61
57668;BME280;43499;52.366;12.912;2023-01-16T00:53:38;99679.09;;;2.91;87.56
57668;BME280;43499;52.366;12.912;2023-01-16T00:54:39;99713.03;;;3.12;87.19
57668;BME280;43499;52.366;12.912;2023-01-16T00:55:40;99701.97;;;3.04;87.75
57668;BME280;43499;52.366;12.912;2023-01-16T00:56:42;99687.91;;;3.02;88.27
57668;BME280;43499;52.366;12.912;2023-01-16T00:57:43;99666.00;;;2.90;87.73
57668;BME280;43499;52.366;12.912;2023-01-16T00:58:44;99670.47;;;2.82;88.71
57668;BME280;43499;52.366;12.912;2023-01-16T00:59:45;99686.88;;;2.91;87.76
57668;BME280;43499;52.366;12.912;2023-01-16T01:00:46;99679.13;;;2.83;88.06
57668;BME280;43499;52.366;12.912;2023-01-16T01:01:47;99671.09;;;2.80;88.27
57668;BME280;43499;52.366;12.912;2023-01-16T01:02:48;99694.22;;;2.96;88.12
57668;BME280;43499;52.366;12.912;2023-01-16T01:03:49;99691.34;;;2.84;87.91
57668;BME280;43499;52.366;12.912;2023-01-16T01:04:50;99663.78;;;2.75;88.06
57668;BME280;43499;52.366;12.912;2023-01-16T01:05:51;99647.97;;;2.64;87.91
57668;BME280;43499;52.366;12.912;2023-01-16T01:06:52;99638.97;;;2.60;87.97
57668;BME280;43499;52.366;12.912;2023-01-16T01:07:53;99671.22;;;2.81;88.57
57668;BME280;43499;52.366;12.912;2023-01-16T01:08:54;99682.81;;;2.85;88.41
57668;BME280;43499;52.366;12.912;2023-01-16T01:09:55;99700.97;;;2.85;88.67
57668;BME280;43499;52.366;12.912;2023-01-16T01:10:56;99676.13;;;2.78;87.74
57668;BME280;43499;52.366;12.912;2023-01-16T01:11:58;99669.09;;;2.77;88.51
57668;BME280;43499;52.366;12.912;2023-01-16T01:12:59;99689.84;;;2.77;88.22
57668;BME280;43499;52.366;12.912;2023-01-16T01:14:00;99653.59;;;2.68;88.48
57668;BME280;43499;52.366;12.912;2023-01-16T01:15:01;99668.66;;;2.72;88.06
57668;BME280;43499;52.366;12.912;2023-01-16T01:16:03;99652.06;;;2.70;88.64
57668;BME280;43499;52.366;12.912;2023-01-16T01:17:04;99661.03;;;2.74;88.27
57668;BME280;43499;52.366;12.912;2023-01-16T01:18:05;99700.59;;;2.99;87.94
57668;BME280;43499;52.366;12.912;2023-01-16T01:19:06;99629.69;;;2.53;87.92
57668;BME280;43499;52.366;12.912;2023-01-16T01:20:08;99625.13;;;2.51;87.80
57668;BME280;43499;52.366;12.912;2023-01-16T01:21:09;99633.66;;;2.50;88.50
57668;BME280;43499;52.366;12.912;2023-01-16T01:22:10;99639.19;;;2.44;88.60
57668;BME280;43499;52.366;12.912;2023-01-16T01:23:11;99652.88;;;2.52;88.62
57668;BME280;43499;52.366;12.912;2023-01-16T01:24:12;99649.41;;;2.51;88.32
57668;BME280;43499;52.366;12.912;2023-01-16T01:25:13;99637.63;;;2.55;88.78
57668;BME280;43499;52.366;12.912;2023-01-16T01:26:16;99705.22;;;2.93;88.33
57668;BME280;43499;52.366;12.912;2023-01-16T01:27:18;99697.28;;;2.91;87.92
57668;BME280;43499;52.366;12.912;2023-01-16T01:28:20;99692.59;;;2.87;88.84
57668;BME280;43499;52.366;12.912;2023-01-16T01:29:21;99660.66;;;2.60;88.62
57668;BME280;43499;52.366;12.912;2023-01-16T01:30:22;99664.53;;;2.74;88.19
57668;BME280;43499;52.366;12.912;2023-01-16T01:31:23;99670.88;;;2.87;88.42
57668;BME280;43499;52.366;12.912;2023-01-16T01:32:24;99642.63;;;2.62;88.13
57668;BME280;43499;52.366;12.912;2023-01-16T01:33:25;99690.25;;;2.90;88.88
57668;BME280;43499;52.366;12.912;2023-01-16T01:34:26;99698.34;;;2.93;87.87
57668;BME280;43499;52.366;12.912;2023-01-16T01:35:27;99681.06;;;2.94;88.31
57668;BME280;43499;52.366;12.912;2023-01-16T01:36:28;99689.47;;;2.91;88.14
57668;BME280;43499;52.366;12.912;2023-01-16T01:37:29;99680.59;;;2.98;87.94
57668;BME280;43499;52.366;12.912;2023-01-16T01:38:30;99631.16;;;2.60;88.33
57668;BME280;43499;52.366;12.912;2023-01-16T01:39:31;99666.66;;;2.78;88.62
57668;BME280;43499;52.366;12.912;2023-01-16T01:40:33;99685.03;;;2.99;88.27
57668;BME280;43499;52.366;12.912;2023-01-16T01:41:34;99673.88;;;3.00;88.32
57668;BME280;43499;52.366;12.912;2023-01-16T01:42:38;99685.91;;;3.00;88.13
57668;BME280;43499;52.366;12.912;2023-01-16T01:43:48;99675.88;;;2.94;88.33
57668;BME280;43499;52.366;12.912;2023-01-16T01:45:01;99626.72;;;2.68;87.91
57668;BME280;43499;52.366;12.912;2023-01-16T01:46:06;99682.34;;;2.89;88.16
57668;BME280;43499;52.366;12.912;2023-01-16T01:47:08;99642.59;;;2.71;88.45
57668;BME280;43499;52.366;12.912;2023-01-16T01:48:17;99682.28;;;2.98;88.34
57668;BME280;43499;52.366;12.912;2023-01-16T01:49:27;99631.00;;;2.67;88.67
57668;BME280;43499;52.366;12.912;2023-01-16T01:50:49;99646.88;;;2.89;88.76
57668;BME280;43499;52.366;12.912;2023-01-16T01:51:54;99658.00;;;2.97;88.26
57668;BME280;43499;52.366;12.912;2023-01-16T01:52:57;99645.53;;;2.93;88.84
57668;BME280;43499;52.366;12.912;2023-01-16T01:54:07;99667.63;;;2.98;88.49
57668;BME280;43499;52.366;12.912;2023-01-16T01:55:11;99584.97;;;2.56;88.34
57668;BME280;43499;52.366;12.912;2023-01-16T01:56:35;99665.31;;;3.01;88.61
57668;BME280;43499;52.366;12.912;2023-01-16T01:57:40;99627.22;;;2.83;88.38
57668;BME280;43499;52.366;12.912;2023-01-16T01:58:44;99659.69;;;2.97;88.24
57668;BME280;43499;52.366;12.912;2023-01-16T01:59:57;99639.44;;;2.84;88.54
57668;BME280;43499;52.366;12.912;2023-01-16T02:01:00;99590.63;;;2.52;88.77
57668;BME280;43499;52.366;12.912;2023-01-16T02:02:04;99618.16;;;2.69;88.94
57668;BME280;43499;52.366;12.912;2023-01-16T02:03:10;99633.81;;;2.79;88.59
57668;BME280;43499;52.366;12.912;2023-01-16T02:04:17;99645.88;;;2.87;88.69
57668;BME280;43499;52.366;12.912;2023-01-16T02:05:24;99676.34;;;2.99;89.05
57668;BME280;43499;52.366;12.912;2023-01-16T02:06:35;99604.13;;;2.67;89.23
57668;BME280;43499;52.366;12.912;2023-01-16T02:07:38;99648.00;;;2.83;88.97
57668;BME280;43499;52.366;12.912;2023-01-16T02:08:40;99639.94;;;2.80;89.24
57668;BME280;43499;52.366;12.912;2023-01-16T02:09:45;99670.09;;;2.97;88.46
57668;BME280;43499;52.366;12.912;2023-01-16T02:10:49;99678.00;;;2.98;89.09
57668;BME280;43499;52.366;12.912;2023-01-16T02:11:57;99662.00;;;2.93;88.45
57668;BME280;43499;52.366;12.912;2023-01-16T02:13:01;99658.63;;;2.95;88.58
57668;BME280;43499;52.366;12.912;2023-01-16T02:14:06;99624.38;;;2.80;88.57
57668;BME280;43499;52.366;12.912;2023-01-16T02:15:08;99630.28;;;2.87;88.40
57668;BME280;43499;52.366;12.912;2023-01-16T02:16:09;99656.47;;;2.99;88.75
57668;BME280;43499;52.366;12.912;2023-01-16T02:17:29;99651.50;;;3.11;87.70
57668;BME280;43499;52.366;12.912;2023-01-16T02:18:49;99663.44;;;3.09;88.24
57668;BME280;43499;52.366;12.912;2023-01-16T02:21:27;99642.63;;;2.90;88.71
57668;BME280;43499;52.366;12.912;2023-01-16T02:22:50;99646.75;;;2.88;88.18
57668;BME280;43499;52.366;12.912;2023-01-16T02:24:38;99616.28;;;2.76;88.71
57668;BME280;43499;52.366;12.912;2023-01-16T02:26:11;99649.56;;;3.00;88.33
57668;BME280;43499;52.366;12.912;2023-01-16T02:27:35;99594.50;;;2.66;88.19
57668;BME280;43499;52.366;12.912;2023-01-16T02:29:08;99612.69;;;2.66;88.74
57668;BME280;43499;52.366;12.912;2023-01-16T02:34:40;99628.63;;;2.79;88.67
57668;BME280;43499;52.366;12.912;2023-01-16T02:35:58;99638.25;;;2.80;89.58
57668;BME280;43499;52.366;12.912;2023-01-16T02:37:17;99624.13;;;2.68;89.58
57668;BME280;43499;52.366;12.912;2023-01-16T02:42:30;99622.22;;;2.84;88.99
57668;BME280;43499;52.366;12.912;2023-01-16T02:44:40;99610.81;;;2.73;89.14
57668;BME280;43499;52.366;12.912;2023-01-16T02:45:58;99627.53;;;2.86;89.31
57668;BME280;43499;52.366;12.912;2023-01-16T02:47:13;99569.88;;;2.52;88.74
57668;BME280;43499;52.366;12.912;2023-01-16T02:48:27;99585.25;;;2.59;89.09
57668;BME280;43499;52.366;12.912;2023-01-16T02:49:40;99602.63;;;2.60;89.18
57668;BME280;43499;52.366;12.912;2023-01-16T02:51:13;99577.78;;;2.53;89.67
57668;BME280;43499;52.366;12.912;2023-01-16T02:52:31;99619.78;;;2.77;89.24
57668;BME280;43499;52.366;12.912;2023-01-16T02:53:43;99609.91;;;2.73;88.91
57668;BME280;43499;52.366;12.912;2023-01-16T02:55:01;99626.69;;;2.76;89.15
57668;BME280;43499;52.366;12.912;2023-01-16T02:56:06;99577.19;;;2.56;89.43
57668;BME280;43499;52.366;12.912;2023-01-16T02:57:17;99627.69;;;2.87;89.87
57668;BME280;43499;52.366;12.912;2023-01-16T02:58:20;99592.44;;;2.61;89.89
57668;BME280;43499;52.366;12.912;2023-01-16T02:59:23;99575.50;;;2.56;88.99
57668;BME280;43499;52.366;12.912;2023-01-16T03:00:26;99570.94;;;2.54;89.20
57668;BME280;43499;52.366;12.912;2023-01-16T03:01:27;99564.56;;;2.50;88.97
57668;BME280;43499;52.366;12.912;2023-01-16T03:02:28;99574.19;;;2.51;89.54
57668;BME280;43499;52.366;12.912;2023-01-16T03:04:50;99592.94;;;2.76;89.39
57668;BME280;43499;52.366;12.912;2023-01-16T03:05:53;99580.22;;;2.60;89.08
57668;BME280;43499;52.366;12.912;2023-01-16T03:07:08;99600.16;;;2.70;88.70
57668;BME280;43499;52.366;12.912;2023-01-16T03:09:43;99575.47;;;2.65;89.15
57668;BME280;43499;52.366;12.912;2023-01-16T03:11:01;99605.44;;;2.81;89.62
57668;BME280;43499;52.366;12.912;2023-01-16T03:12:15;99612.00;;;2.77;89.62
57668;BME280;43499;52.366;12.912;2023-01-16T03:13:46;99589.31;;;2.66;89.95
57668;BME280;43499;52.366;12.912;2023-01-16T03:15:10;99579.63;;;2.54;89.93
57668;BME280;43499;52.366;12.912;2023-01-16T03:16:28;99601.75;;;2.59;90.07
57668;BME280;43499;52.366;12.912;2023-01-16T03:19:40;99596.84;;;2.62;90.62
57668;BME280;43499;52.366;12.912;2023-01-16T03:20:57;99602.72;;;2.51;90.69
57668;BME280;43499;52.366;12.912;2023-01-16T03:22:11;99549.91;;;2.23;90.64
57668;BME280;43499;52.366;12.912;2023-01-16T03:23:29;99594.00;;;2.51;91.03
57668;BME280;43499;52.366;12.912;2023-01-16T03:26:29;99576.22;;;2.36;91.54
57668;BME280;43499;52.366;12.912;2023-01-16T03:27:42;99580.06;;;2.31;91.39
57668;BME280;43499;52.366;12.912;2023-01-16T03:28:59;99592.06;;;2.39;91.81
57668;BME280;43499;52.366;12.912;2023-01-16T03:30:12;99595.94;;;2.34;92.57
57668;BME280;43499;52.366;12.912;2023-01-16T03:31:22;99576.09;;;2.26;92.23
57668;BME280;43499;52.366;12.912;2023-01-16T03:32:37;99526.53;;;1.95;92.31
57668;BME280;43499;52.366;12.912;2023-01-16T03:33:52;99590.56;;;2.33;92.25
57668;BME280;43499;52.366;12.912;2023-01-16T03:36:15;99558.78;;;2.16;92.33
57668;BME280;43499;52.366;12.912;2023-01-16T03:37:25;99579.13;;;2.30;92.64
57668;BME280;43499;52.366;12.912;2023-01-16T03:38:30;99573.56;;;2.17;92.91
57668;BME280;43499;52.366;12.912;2023-01-16T03:39:37;99567.28;;;2.24;92.69
57668;BME280;43499;52.366;12.912;2023-01-16T03:40:44;99520.59;;;1.96;93.37
57668;BME280;43499;52.366;12.912;2023-01-16T03:41:49;99556.47;;;2.19;93.17
57668;BME280;43499;52.366;12.912;2023-01-16T03:43:06;99531.09;;;1.97;92.95
57668;BME280;43499;52.366;12.912;2023-01-16T03:44:13;99514.97;;;1.91;93.23
57668;BME280;43499;52.366;12.912;2023-01-16T03:45:30;99573.69;;;2.27;93.81
57668;BME280;43499;52.366;12.912;2023-01-16T03:46:39;99558.16;;;2.19;93.27
57668;BME280;43499;52.366;12.912;2023-01-16T03:47:47;99565.47;;;2.23;93.54
57668;BME280;43499;52.366;12.912;2023-01-16T03:48:54;99535.50;;;1.98;93.98
57668;BME280;43499;52.366;12.912;2023-01-16T03:49:59;99543.47;;;2.00;94.31
57668;BME280;43499;52.366;12.912;2023-01-16T03:51:06;99574.91;;;2.22;94.16
57668;BME280;43499;52.366;12.912;2023-01-16T03:52:12;99566.50;;;2.25;93.92
57668;BME280;43499;52.366;12.912;2023-01-16T03:53:19;99549.19;;;2.15;94.77
57668;BME280;43499;52.366;12.912;2023-01-16T03:54:42;99572.63;;;2.25;93.58
57668;BME280;43499;52.366;12.912;2023-01-16T03:55:54;99566.38;;;2.23;94.10
57668;BME280;43499;52.366;12.912;2023-01-16T03:57:09;99533.84;;;1.99;94.52
57668;BME280;43499;52.366;12.912;2023-01-16T03:58:28;99542.63;;;2.10;94.39
57668;BME280;43499;52.366;12.912;2023-01-16T03:59:31;99565.59;;;2.24;94.62
57668;BME280;43499;52.366;12.912;2023-01-16T04:00:47;99505.03;;;1.96;93.94
57668;BME280;43499;52.366;12.912;2023-01-16T04:01:55;99526.94;;;2.08;94.60
57668;BME280;43499;52.366;12.912;2023-01-16T04:03:07;99516.47;;;1.98;94.20
57668;BME280;43499;52.366;12.912;2023-01-16T04:04:36;99554.34;;;2.24;94.30
57668;BME280;43499;52.366;12.912;2023-01-16T04:05:46;99550.69;;;2.22;94.57
57668;BME280;43499;52.366;12.912;2023-01-16T04:06:53;99551.91;;;2.16;94.89
57668;BME280;43499;52.366;12.912;2023-01-16T04:08:05;99517.88;;;1.94;95.34
57668;BME280;43499;52.366;12.912;2023-01-16T04:09:14;99474.03;;;1.78;95.00
57668;BME280;43499;52.366;12.912;2023-01-16T04:10:22;99502.66;;;1.89;95.54
57668;BME280;43499;52.366;12.912;2023-01-16T04:11:25;99541.88;;;2.11;95.71
57668;BME280;43499;52.366;12.912;2023-01-16T04:12:30;99512.84;;;1.87;95.23
57668;BME280;43499;52.366;12.912;2023-01-16T04:13:36;99475.91;;;1.71;95.47
57668;BME280;43499;52.366;12.912;2023-01-16T04:14:39;99496.28;;;1.76;95.72
57668;BME280;43499;52.366;12.912;2023-01-16T04:15:46;99499.94;;;1.78;95.81
57668;BME280;43499;52.366;12.912;2023-01-16T04:16:48;99529.88;;;2.03;95.58
57668;BME280;43499;52.366;12.912;2023-01-16T04:17:50;99538.06;;;2.07;96.17
57668;BME280;43499;52.366;12.912;2023-01-16T04:18:52;99466.28;;;1.69;96.29
57668;BME280;43499;52.366;12.912;2023-01-16T04:19:54;99534.59;;;2.07;96.46
57668;BME280;43499;52.366;12.912;2023-01-16T04:20:55;99507.63;;;1.96;96.40
57668;BME280;43499;52.366;12.912;2023-01-16T04:21:56;99494.44;;;1.84;95.97
57668;BME280;43499;52.366;12.912;2023-01-16T04:22:57;99461.72;;;1.67;96.54
57668;BME280;43499;52.366;12.912;2023-01-16T04:23:58;99486.81;;;1.85;96.59
57668;BME280;43499;52.366;12.912;2023-01-16T04:25:04;99514.44;;;2.04;97.41
57668;BME280;43499;52.366;12.912;2023-01-16T04:26:06;99502.44;;;1.96;96.88
57668;BME280;43499;52.366;12.912;2023-01-16T04:27:07;99469.13;;;1.81;96.65
57668;BME280;43499;52.366;12.912;2023-01-16T04:28:08;99449.81;;;1.69;96.27
57668;BME280;43499;52.366;12.912;2023-01-16T04:29:10;99510.47;;;2.08;96.61
57668;BME280;43499;52.366;12.912;2023-01-16T04:30:11;99431.13;;;1.63;97.14
57668;BME280;43499;52.366;12.912;2023-01-16T04:31:12;99471.06;;;1.93;96.61
57668;BME280;43499;52.366;12.912;2023-01-16T04:32:13;99475.47;;;1.94;96.59
57668;BME280;43499;52.366;12.912;2023-01-16T04:33:14;99462.28;;;1.82;96.37
57668;BME280;43499;52.366;12.912;2023-01-16T04:34:15;99470.16;;;1.92;96.38
57668;BME280;43499;52.366;12.912;2023-01-16T04:35:16;99486.88;;;2.05;96.81
57668;BME280;43499;52.366;12.912;2023-01-16T04:36:17;99473.94;;;1.96;96.81
57668;BME280;43499;52.366;12.912;2023-01-16T04:37:18;99495.53;;;2.05;96.78
57668;BME280;43499;52.366;12.912;2023-01-16T04:38:19;99498.00;;;2.04;97.01
57668;BME280;43499;52.366;12.912;2023-01-16T04:39:20;99453.59;;;1.81;96.83
57668;BME280;43499;52.366;12.912;2023-01-16T04:40:21;99485.94;;;2.04;96.28
57668;BME280;43499;52.366;12.912;2023-01-16T04:41:22;99459.03;;;1.93;96.70
57668;BME280;43499;52.366;12.912;2023-01-16T04:42:39;99468.63;;;1.94;96.79
57668;BME280;43499;52.366;12.912;2023-01-16T04:43:40;99434.69;;;1.82;97.13
57668;BME280;43499;52.366;12.912;2023-01-16T04:44:41;99459.28;;;1.96;96.71
57668;BME280;43499;52.366;12.912;2023-01-16T04:45:42;99437.47;;;1.75;97.10
57668;BME280;43499;52.366;12.912;2023-01-16T04:46:43;99432.38;;;1.85;97.32
57668;BME280;43499;52.366;12.912;2023-01-16T04:47:49;99440.16;;;1.85;96.59
57668;BME280;43499;52.366;12.912;2023-01-16T04:48:50;99458.34;;;2.05;97.17
57668;BME280;43499;52.366;12.912;2023-01-16T04:49:51;99428.59;;;1.82;96.82
57668;BME280;43499;52.366;12.912;2023-01-16T04:50:52;99479.19;;;2.15;96.69
57668;BME280;43499;52.366;12.912;2023-01-16T04:51:54;99481.78;;;2.15;96.68
57668;BME280;43499;52.366;12.912;2023-01-16T04:52:55;99445.78;;;1.90;96.81
57668;BME280;43499;52.366;12.912;2023-01-16T04:53:56;99474.00;;;2.15;96.77
57668;BME280;43499;52.366;12.912;2023-01-16T04:54:57;99418.25;;;1.82;97.18
57668;BME280;43499;52.366;12.912;2023-01-16T04:55:58;99451.53;;;1.96;96.90
57668;BME280;43499;52.366;12.912;2023-01-16T04:56:59;99424.03;;;1.79;96.72
57668;BME280;43499;52.366;12.912;2023-01-16T04:58:01;99415.69;;;1.73;96.57
57668;BME280;43499;52.366;12.912;2023-01-16T04:59:02;99449.09;;;1.98;97.09
57668;BME280;43499;52.366;12.912;2023-01-16T05:00:05;99474.78;;;2.14;97.51
57668;BME280;43499;52.366;12.912;2023-01-16T05:01:07;99466.41;;;2.08;97.02
57668;BME280;43499;52.366;12.912;2023-01-16T05:02:08;99406.50;;;1.77;97.13
57668;BME280;43499;52.366;12.912;2023-01-16T05:03:09;99453.69;;;1.92;97.54
57668;BME280;43499;52.366;12.912;2023-01-16T05:04:12;99463.38;;;2.03;97.55
57668;BME280;43499;52.366;12.912;2023-01-16T05:05:13;99474.63;;;2.12;97.66
57668;BME280;43499;52.366;12.912;2023-01-16T05:06:14;99467.63;;;2.11;97.61
57668;BME280;43499;52.366;12.912;2023-01-16T05:07:15;99424.66;;;1.77;97.53
57668;BME280;43499;52.366;12.912;2023-01-16T05:08:16;99463.13;;;2.00;96.69
57668;BME280;43499;52.366;12.912;2023-01-16T05:09:17;99387.84;;;1.62;97.03
57668;BME280;43499;52.366;12.912;2023-01-16T05:10:18;99471.44;;;2.06;97.92
57668;BME280;43499;52.366;12.912;2023-01-16T05:11:19;99435.41;;;1.90;97.71
57668;BME280;43499;52.366;12.912;2023-01-16T05:12:20;99448.47;;;2.00;97.69
57668;BME280;43499;52.366;12.912;2023-01-16T05:13:21;99426.56;;;1.88;97.99
57668;BME280;43499;52.366;12.912;2023-01-16T05:14:22;99448.47;;;2.00;97.74
57668;BME280;43499;52.366;12.912;2023-01-16T05:15:23;99430.22;;;1.90;97.23
57668;BME280;43499;52.366;12.912;2023-01-16T05:16:25;99464.09;;;2.11;97.66
57668;BME280;43499;52.366;12.912;2023-01-16T05:17:26;99437.22;;;1.91;97.71
57668;BME280;43499;52.366;12.912;2023-01-16T05:18:27;99394.22;;;1.65;97.53
57668;BME280;43499;52.366;12.912;2023-01-16T05:19:28;99462.16;;;2.08;97.18
57668;BME280;43499;52.366;12.912;2023-01-16T05:20:29;99436.03;;;1.88;97.36
57668;BME280;43499;52.366;12.912;2023-01-16T05:21:31;99427.22;;;1.85;97.73
57668;BME280;43499;52.366;12.912;2023-01-16T05:22:32;99388.59;;;1.69;97.67
57668;BME280;43499;52.366;12.912;2023-01-16T05:23:34;99436.78;;;1.95;98.13
57668;BME280;43499;52.366;12.912;2023-01-16T05:24:35;99432.34;;;1.94;97.44
57668;BME280;43499;52.366;12.912;2023-01-16T05:25:37;99457.44;;;2.04;97.27
57668;BME280;43499;52.366;12.912;2023-01-16T05:26:38;99461.81;;;2.14;97.57
57668;BME280;43499;52.366;12.912;2023-01-16T05:27:39;99463.47;;;2.13;97.69
57668;BME280;43499;52.366;12.912;2023-01-16T05:28:41;99399.50;;;1.76;97.19
57668;BME280;43499;52.366;12.912;2023-01-16T05:29:42;99426.09;;;1.92;97.24
57668;BME280;43499;52.366;12.912;2023-01-16T05:30:43;99429.13;;;1.97;97.66
57668;BME280;43499;52.366;12.912;2023-01-16T05:31:44;99408.13;;;1.85;97.43
57668;BME280;43499;52.366;12.912;2023-01-16T05:32:45;99440.56;;;1.99;97.53
57668;BME280;43499;52.366;12.912;2023-01-16T05:33:46;99405.88;;;1.79;97.41
57668;BME280;43499;52.366;12.912;2023-01-16T05:34:47;99412.56;;;1.86;97.24
57668;BME280;43499;52.366;12.912;2023-01-16T05:35:48;99388.38;;;1.77;97.42
57668;BME280;43499;52.366;12.912;2023-01-16T05:36:49;99381.41;;;1.67;97.21
57668;BME280;43499;52.366;12.912;2023-01-16T05:37:50;99388.72;;;1.71;97.65
57668;BME280;43499;52.366;12.912;2023-01-16T05:38:51;99386.00;;;1.69;97.32
57668;BME280;43499;52.366;12.912;2023-01-16T05:39:52;99401.75;;;1.81;97.54
57668;BME280;43499;52.366;12.912;2023-01-16T05:40:57;99394.50;;;1.77;98.13
57668;BME280;43499;52.366;12.912;2023-01-16T05:41:58;99414.88;;;1.83;97.16
57668;BME280;43499;52.366;12.912;2023-01-16T05:42:59;99406.47;;;1.85;97.02
57668;BME280;43499;52.366;12.912;2023-01-16T05:44:00;99385.78;;;1.77;97.01
57668;BME280;43499;52.366;12.912;2023-01-16T05:45:02;99439.59;;;2.07;97.58
57668;BME280;43499;52.366;12.912;2023-01-16T05:46:03;99378.34;;;1.71;97.58
57668;BME280;43499;52.366;12.912;2023-01-16T05:47:04;99423.31;;;1.99;97.86
57668;BME280;43499;52.366;12.912;2023-01-16T05:48:05;99381.53;;;1.77;98.19
57668;BME280;43499;52.366;12.912;2023-01-16T05:49:06;99413.56;;;1.97;97.92
57668;BME280;43499;52.366;12.912;2023-01-16T05:50:08;99392.59;;;1.85;97.66
57668;BME280;43499;52.366;12.912;2023-01-16T05:51:09;99394.28;;;1.84;97.44
57668;BME280;43499;52.366;12.912;2023-01-16T05:52:10;99419.75;;;2.08;97.86
57668;BME280;43499;52.366;12.912;2023-01-16T05:53:11;99375.59;;;1.78;97.76
57668;BME280;43499;52.366;12.912;2023-01-16T05:54:12;99414.28;;;2.05;98.17
57668;BME280;43499;52.366;12.912;2023-01-16T05:55:13;99400.50;;;1.95;97.87
57668;BME280;43499;52.366;12.912;2023-01-16T05:56:21;99422.19;;;2.06;98.10
57668;BME280;43499;52.366;12.912;2023-01-16T05:57:23;99358.91;;;1.66;97.66
57668;BME280;43499;52.366;12.912;2023-01-16T05:58:24;99361.75;;;1.69;97.73
57668;BME280;43499;52.366;12.912;2023-01-16T05:59:25;99387.16;;;1.82;97.78
57668;BME280;43499;52.366;12.912;2023-01-16T06:00:26;99401.50;;;1.97;97.26
57668;BME280;43499;52.366;12.912;2023-01-16T06:01:27;99336.38;;;1.56;97.21
57668;BME280;43499;52.366;12.912;2023-01-16T06:02:28;99360.50;;;1.74;97.50